sensor_id;sensor_type;location;lat;lon;timestamp;pressure;altitude;pressure_sealevel;temperature;humidity
30343;BME280;17145;49.902;8.680;'2023-05-09 01:59:56';100330;;;16;56
30343;BME280;17145;49.902;8.680;'2023-05-09 02:02:23';100330;;;16;56
30343;BME280;17145;49.902;8.680;'2023-05-09 02:04:50';100340;;;16;56
30343;BME280;17145;49.902;8.680;'2023-05-09 02:07:18';100330;;;16;56
30343;BME280;17145;49.902;8.680;'2023-05-09 02:09:45';100330;;;16;56
30343;BME280;17145;49.902;8.680;'2023-05-09 02:12:13';100330;;;16;56
30343;BME280;17145;49.902;8.680;'2023-05-09 02:14:40';100330;;;15;56
30343;BME280;17145;49.902;8.680;'2023-05-09 02:17:08';100320;;;16;56
30343;BME280;17145;49.902;8.680;'2023-05-09 02:19:35';100320;;;16;56
30343;BME280;17145;49.902;8.680;'2023-05-09 02:22:03';100320;;;16;56
30343;BME280;17145;49.902;8.680;'2023-05-09 02:24:30';100320;;;16;56
30343;BME280;17145;49.902;8.680;'2023-05-09 02:26:57';100320;;;16;56
30343;BME280;17145;49.902;8.680;'2023-05-09 02:29:25';100320;;;16;56
30343;BME280;17145;49.902;8.680;'2023-05-09 02:31:52';100320;;;16;56
30343;BME280;17145;49.902;8.680;'2023-05-09 02:34:20';100320;;;16;56
30343;BME280;17145;49.902;8.680;'2023-05-09 02:36:47';100310;;;16;56
30343;BME280;17145;49.902;8.680;'2023-05-09 02:39:15';100310;;;16;55
30343;BME280;17145;49.902;8.680;'2023-05-09 02:41:42';100310;;;16;55
30343;BME280;17145;49.902;8.680;'2023-05-09 02:44:10';100300;;;16;55
30343;BME280;17145;49.902;8.680;'2023-05-09 02:46:37';100300;;;16;55
30343;BME280;17145;49.902;8.680;'2023-05-09 02:49:05';100300;;;16;55
30343;BME280;17145;49.902;8.680;'2023-05-09 02:51:35';100300;;;16;55
30343;BME280;17145;49.902;8.680;'2023-05-09 02:54:02';100290;;;16;55
30343;BME280;17145;49.902;8.680;'2023-05-09 02:56:30';100290;;;16;55
30343;BME280;17145;49.902;8.680;'2023-05-09 02:58:58';100290;;;16;55
30343;BME280;17145;49.902;8.680;'2023-05-09 03:01:25';100280;;;16;55
30343;BME280;17145;49.902;8.680;'2023-05-09 03:03:54';100280;;;16;55
30343;BME280;17145;49.902;8.680;'2023-05-09 03:06:28';100280;;;16;55
30343;BME280;17145;49.902;8.680;'2023-05-09 03:09:01';100280;;;16;55
30343;BME280;17145;49.902;8.680;'2023-05-09 03:11:35';100280;;;16;55
30343;BME280;17145;49.902;8.680;'2023-05-09 03:14:14';100280;;;16;55
30343;BME280;17145;49.902;8.680;'2023-05-09 03:16:51';100270;;;16;55
30343;BME280;17145;49.902;8.680;'2023-05-09 03:19:31';100270;;;16;56
30343;BME280;17145;49.902;8.680;'2023-05-09 03:22:06';100270;;;16;55
30343;BME280;17145;49.902;8.680;'2023-05-09 03:24:52';100270;;;16;56
30343;BME280;17145;49.902;8.680;'2023-05-09 03:27:26';100270;;;16;55
30343;BME280;17145;49.902;8.680;'2023-05-09 03:29:56';100260;;;16;55
30343;BME280;17145;49.902;8.680;'2023-05-09 03:32:26';100260;;;16;56
30343;BME280;17145;49.902;8.680;'2023-05-09 03:34:58';100260;;;16;56
30343;BME280;17145;49.902;8.680;'2023-05-09 03:37:30';100260;;;16;56
30343;BME280;17145;49.902;8.680;'2023-05-09 03:40:02';100260;;;16;56
30343;BME280;17145;49.902;8.680;'2023-05-09 03:42:38';100260;;;16;56
30343;BME280;17145;49.902;8.680;'2023-05-09 03:45:08';100250;;;16;56
30343;BME280;17145;49.902;8.680;'2023-05-09 03:47:39';100240;;;16;56
30343;BME280;17145;49.902;8.680;'2023-05-09 03:50:10';100240;;;16;56
30343;BME280;17145;49.902;8.680;'2023-05-09 03:52:39';100240;;;16;56
30343;BME280;17145;49.902;8.680;'2023-05-09 03:55:08';100230;;;15;56
30343;BME280;17145;49.902;8.680;'2023-05-09 03:57:37';100240;;;16;55
30343;BME280;17145;49.902;8.680;'2023-05-09 04:00:07';100240;;;15;55
30343;BME280;17145;49.902;8.680;'2023-05-09 04:02:36';100240;;;15;55
30343;BME280;17145;49.902;8.680;'2023-05-09 04:05:04';100240;;;15;55
30343;BME280;17145;49.902;8.680;'2023-05-09 04:07:33';100240;;;15;55
30343;BME280;17145;49.902;8.680;'2023-05-09 04:10:02';100240;;;15;55
30343;BME280;17145;49.902;8.680;'2023-05-09 04:12:29';100240;;;15;55
30343;BME280;17145;49.902;8.680;'2023-05-09 04:14:56';100240;;;15;55
30343;BME280;17145;49.902;8.680;'2023-05-09 04:17:24';100240;;;15;55
30343;BME280;17145;49.902;8.680;'2023-05-09 04:19:51';100240;;;15;55
30343;BME280;17145;49.902;8.680;'2023-05-09 04:22:18';100240;;;15;55
30343;BME280;17145;49.902;8.680;'2023-05-09 04:24:46';100250;;;15;55
30343;BME280;17145;49.902;8.680;'2023-05-09 04:27:14';100240;;;15;55
30343;BME280;17145;49.902;8.680;'2023-05-09 04:29:46';100240;;;15;56
30343;BME280;17145;49.902;8.680;'2023-05-09 04:32:21';100230;;;15;56
30343;BME280;17145;49.902;8.680;'2023-05-09 04:34:51';100230;;;15;56
30343;BME280;17145;49.902;8.680;'2023-05-09 04:37:20';100220;;;15;56
30343;BME280;17145;49.902;8.680;'2023-05-09 04:39:47';100220;;;15;56
30343;BME280;17145;49.902;8.680;'2023-05-09 04:42:18';100220;;;15;56
30343;BME280;17145;49.902;8.680;'2023-05-09 04:44:45';100220;;;15;56
30343;BME280;17145;49.902;8.680;'2023-05-09 04:47:13';100210;;;15;56
30343;BME280;17145;49.902;8.680;'2023-05-09 04:49:41';100220;;;15;56
30343;BME280;17145;49.902;8.680;'2023-05-09 04:52:08';100210;;;14;56
30343;BME280;17145;49.902;8.680;'2023-05-09 04:54:36';100210;;;14;56
30343;BME280;17145;49.902;8.680;'2023-05-09 04:57:03';100210;;;15;56
30343;BME280;17145;49.902;8.680;'2023-05-09 04:59:31';100210;;;15;56
30343;BME280;17145;49.902;8.680;'2023-05-09 05:01:58';100220;;;14;56
30343;BME280;17145;49.902;8.680;'2023-05-09 05:04:26';100220;;;15;56
30343;BME280;17145;49.902;8.680;'2023-05-09 05:06:53';100220;;;15;56
30343;BME280;17145;49.902;8.680;'2023-05-09 05:09:21';100220;;;15;56
30343;BME280;17145;49.902;8.680;'2023-05-09 05:11:49';100220;;;15;56
30343;BME280;17145;49.902;8.680;'2023-05-09 05:14:16';100210;;;15;56
30343;BME280;17145;49.902;8.680;'2023-05-09 05:16:44';100210;;;14;56
30343;BME280;17145;49.902;8.680;'2023-05-09 05:19:11';100200;;;14;56
30343;BME280;17145;49.902;8.680;'2023-05-09 05:21:38';100200;;;14;56
30343;BME280;17145;49.902;8.680;'2023-05-09 05:24:06';100190;;;14;56
30343;BME280;17145;49.902;8.680;'2023-05-09 05:26:33';100190;;;15;56
30343;BME280;17145;49.902;8.680;'2023-05-09 05:29:01';100200;;;14;56
30343;BME280;17145;49.902;8.680;'2023-05-09 05:31:28';100190;;;14;56
30343;BME280;17145;49.902;8.680;'2023-05-09 05:33:56';100190;;;14;56
30343;BME280;17145;49.902;8.680;'2023-05-09 05:36:24';100190;;;14;56
30343;BME280;17145;49.902;8.680;'2023-05-09 05:38:51';100180;;;15;56
30343;BME280;17145;49.902;8.680;'2023-05-09 05:41:19';100180;;;14;56
30343;BME280;17145;49.902;8.680;'2023-05-09 05:43:47';100180;;;14;56
30343;BME280;17145;49.902;8.680;'2023-05-09 05:46:14';100180;;;14;56
30343;BME280;17145;49.902;8.680;'2023-05-09 05:48:42';100180;;;14;56
30343;BME280;17145;49.902;8.680;'2023-05-09 05:51:09';100180;;;14;56
30343;BME280;17145;49.902;8.680;'2023-05-09 05:53:36';100180;;;14;56
30343;BME280;17145;49.902;8.680;'2023-05-09 05:56:04';100180;;;14;56
30343;BME280;17145;49.902;8.680;'2023-05-09 05:58:32';100180;;;14;56
30343;BME280;17145;49.902;8.680;'2023-05-09 06:00:59';100180;;;14;56
30343;BME280;17145;49.902;8.680;'2023-05-09 06:03:27';100180;;;14;56
30343;BME280;17145;49.902;8.680;'2023-05-09 06:05:54';100190;;;14;56
30343;BME280;17145;49.902;8.680;'2023-05-09 06:08:22';100190;;;14;56
30343;BME280;17145;49.902;8.680;'2023-05-09 06:10:49';100190;;;14;56
30343;BME280;17145;49.902;8.680;'2023-05-09 06:13:17';100190;;;14;56
30343;BME280;17145;49.902;8.680;'2023-05-09 06:15:44';100190;;;14;56
30343;BME280;17145;49.902;8.680;'2023-05-09 06:18:11';100190;;;14;57
30343;BME280;17145;49.902;8.680;'2023-05-09 06:20:39';100190;;;14;57
30343;BME280;17145;49.902;8.680;'2023-05-09 06:23:06';100190;;;14;57
30343;BME280;17145;49.902;8.680;'2023-05-09 06:25:34';100190;;;14;57
30343;BME280;17145;49.902;8.680;'2023-05-09 06:28:01';100180;;;14;57
30343;BME280;17145;49.902;8.680;'2023-05-09 06:30:28';100180;;;14;57
30343;BME280;17145;49.902;8.680;'2023-05-09 06:32:56';100180;;;14;57
30343;BME280;17145;49.902;8.680;'2023-05-09 06:35:23';100180;;;14;57
30343;BME280;17145;49.902;8.680;'2023-05-09 06:37:51';100180;;;14;57
30343;BME280;17145;49.902;8.680;'2023-05-09 06:40:18';100180;;;14;57
30343;BME280;17145;49.902;8.680;'2023-05-09 06:42:46';100170;;;14;57
30343;BME280;17145;49.902;8.680;'2023-05-09 06:45:13';100170;;;14;57
30343;BME280;17145;49.902;8.680;'2023-05-09 06:47:41';100170;;;14;57
30343;BME280;17145;49.902;8.680;'2023-05-09 06:50:09';100170;;;14;57
30343;BME280;17145;49.902;8.680;'2023-05-09 06:52:36';100170;;;14;57
30343;BME280;17145;49.902;8.680;'2023-05-09 06:55:04';100160;;;14;57
30343;BME280;17145;49.902;8.680;'2023-05-09 06:57:32';100160;;;14;58
30343;BME280;17145;49.902;8.680;'2023-05-09 07:00:00';100160;;;14;58
30343;BME280;17145;49.902;8.680;'2023-05-09 07:02:27';100160;;;14;58
30343;BME280;17145;49.902;8.680;'2023-05-09 07:04:55';100160;;;14;58
30343;BME280;17145;49.902;8.680;'2023-05-09 07:07:22';100150;;;14;58
30343;BME280;17145;49.902;8.680;'2023-05-09 07:09:49';100150;;;15;58
30343;BME280;17145;49.902;8.680;'2023-05-09 07:12:17';100150;;;14;58
30343;BME280;17145;49.902;8.680;'2023-05-09 07:14:44';100150;;;14;58
30343;BME280;17145;49.902;8.680;'2023-05-09 07:17:12';100150;;;14;58
30343;BME280;17145;49.902;8.680;'2023-05-09 07:19:39';100150;;;15;58
30343;BME280;17145;49.902;8.680;'2023-05-09 07:22:07';100150;;;14;58
30343;BME280;17145;49.902;8.680;'2023-05-09 07:24:34';100150;;;15;58
30343;BME280;17145;49.902;8.680;'2023-05-09 07:27:01';100150;;;15;57
30343;BME280;17145;49.902;8.680;'2023-05-09 07:29:29';100150;;;15;57
30343;BME280;17145;49.902;8.680;'2023-05-09 07:31:56';100150;;;15;57
30343;BME280;17145;49.902;8.680;'2023-05-09 07:34:23';100150;;;15;57
30343;BME280;17145;49.902;8.680;'2023-05-09 07:36:51';100150;;;15;57
30343;BME280;17145;49.902;8.680;'2023-05-09 07:39:18';100150;;;15;56
30343;BME280;17145;49.902;8.680;'2023-05-09 07:41:45';100140;;;15;56
30343;BME280;17145;49.902;8.680;'2023-05-09 07:44:13';100140;;;15;57
30343;BME280;17145;49.902;8.680;'2023-05-09 07:46:40';100140;;;15;56
30343;BME280;17145;49.902;8.680;'2023-05-09 07:49:07';100140;;;16;56
30343;BME280;17145;49.902;8.680;'2023-05-09 07:51:35';100140;;;16;56
30343;BME280;17145;49.902;8.680;'2023-05-09 07:54:02';100140;;;16;56
30343;BME280;17145;49.902;8.680;'2023-05-09 07:56:29';100140;;;16;56
30343;BME280;17145;49.902;8.680;'2023-05-09 07:58:57';100140;;;16;56
30343;BME280;17145;49.902;8.680;'2023-05-09 08:01:24';100140;;;16;56
30343;BME280;17145;49.902;8.680;'2023-05-09 08:03:52';100140;;;16;56
30343;BME280;17145;49.902;8.680;'2023-05-09 08:06:19';100130;;;16;55
30343;BME280;17145;49.902;8.680;'2023-05-09 08:08:47';100130;;;17;55
30343;BME280;17145;49.902;8.680;'2023-05-09 08:11:14';100130;;;16;55
30343;BME280;17145;49.902;8.680;'2023-05-09 08:13:42';100130;;;17;55
30343;BME280;17145;49.902;8.680;'2023-05-09 08:16:10';100130;;;16;54
30343;BME280;17145;49.902;8.680;'2023-05-09 08:18:37';100120;;;17;54
30343;BME280;17145;49.902;8.680;'2023-05-09 08:21:05';100120;;;17;53
30343;BME280;17145;49.902;8.680;'2023-05-09 08:23:33';100120;;;17;53
30343;BME280;17145;49.902;8.680;'2023-05-09 08:26:00';100110;;;17;53
30343;BME280;17145;49.902;8.680;'2023-05-09 08:28:27';100110;;;17;53
30343;BME280;17145;49.902;8.680;'2023-05-09 08:30:54';100100;;;16;53
30343;BME280;17145;49.902;8.680;'2023-05-09 08:33:23';100100;;;17;53
30343;BME280;17145;49.902;8.680;'2023-05-09 08:35:50';100100;;;17;53
30343;BME280;17145;49.902;8.680;'2023-05-09 08:38:18';100100;;;17;53
30343;BME280;17145;49.902;8.680;'2023-05-09 08:40:45';100100;;;17;53
30343;BME280;17145;49.902;8.680;'2023-05-09 08:43:12';100090;;;17;53
30343;BME280;17145;49.902;8.680;'2023-05-09 08:45:40';100090;;;17;53
30343;BME280;17145;49.902;8.680;'2023-05-09 08:48:07';100090;;;17;53
30343;BME280;17145;49.902;8.680;'2023-05-09 08:50:34';100090;;;17;53
30343;BME280;17145;49.902;8.680;'2023-05-09 08:53:02';100090;;;17;53
30343;BME280;17145;49.902;8.680;'2023-05-09 08:55:29';100090;;;17;53
30343;BME280;17145;49.902;8.680;'2023-05-09 08:57:57';100090;;;17;53
30343;BME280;17145;49.902;8.680;'2023-05-09 09:00:24';100090;;;17;52
30343;BME280;17145;49.902;8.680;'2023-05-09 09:02:51';100090;;;17;52
30343;BME280;17145;49.902;8.680;'2023-05-09 09:05:19';100080;;;17;52
30343;BME280;17145;49.902;8.680;'2023-05-09 09:07:46';100080;;;17;52
30343;BME280;17145;49.902;8.680;'2023-05-09 09:10:13';100080;;;18;52
30343;BME280;17145;49.902;8.680;'2023-05-09 09:12:41';100070;;;17;52
30343;BME280;17145;49.902;8.680;'2023-05-09 09:15:09';100070;;;17;51
30343;BME280;17145;49.902;8.680;'2023-05-09 09:17:36';100060;;;17;51
30343;BME280;17145;49.902;8.680;'2023-05-09 09:20:05';100050;;;18;52
30343;BME280;17145;49.902;8.680;'2023-05-09 09:22:33';100060;;;17;51
30343;BME280;17145;49.902;8.680;'2023-05-09 09:25:00';100060;;;17;52
30343;BME280;17145;49.902;8.680;'2023-05-09 09:27:27';100050;;;18;52
30343;BME280;17145;49.902;8.680;'2023-05-09 09:29:55';100050;;;18;51
30343;BME280;17145;49.902;8.680;'2023-05-09 09:32:23';100050;;;18;51
30343;BME280;17145;49.902;8.680;'2023-05-09 09:34:51';100050;;;18;51
30343;BME280;17145;49.902;8.680;'2023-05-09 09:37:19';100040;;;18;50
30343;BME280;17145;49.902;8.680;'2023-05-09 09:39:46';100040;;;18;50
30343;BME280;17145;49.902;8.680;'2023-05-09 09:42:13';100030;;;18;50
30343;BME280;17145;49.902;8.680;'2023-05-09 09:44:41';100020;;;18;50
30343;BME280;17145;49.902;8.680;'2023-05-09 09:47:08';100020;;;18;51
30343;BME280;17145;49.902;8.680;'2023-05-09 09:49:35';100020;;;18;51
30343;BME280;17145;49.902;8.680;'2023-05-09 09:52:03';100020;;;18;51
30343;BME280;17145;49.902;8.680;'2023-05-09 09:54:31';100020;;;18;51
30343;BME280;17145;49.902;8.680;'2023-05-09 09:56:58';100020;;;18;51
30343;BME280;17145;49.902;8.680;'2023-05-09 09:59:25';100020;;;18;51
30343;BME280;17145;49.902;8.680;'2023-05-09 10:01:52';100020;;;18;51
30343;BME280;17145;49.902;8.680;'2023-05-09 10:04:20';100020;;;18;51
30343;BME280;17145;49.902;8.680;'2023-05-09 10:06:47';100020;;;18;50
30343;BME280;17145;49.902;8.680;'2023-05-09 10:09:14';100010;;;18;50
30343;BME280;17145;49.902;8.680;'2023-05-09 10:11:42';100010;;;18;51
30343;BME280;17145;49.902;8.680;'2023-05-09 10:14:09';100000;;;18;51
30343;BME280;17145;49.902;8.680;'2023-05-09 10:16:37';100000;;;18;52
30343;BME280;17145;49.902;8.680;'2023-05-09 10:19:04';100000;;;18;51
30343;BME280;17145;49.902;8.680;'2023-05-09 10:21:32';100000;;;18;51
30343;BME280;17145;49.902;8.680;'2023-05-09 10:23:59';100000;;;18;51
30343;BME280;17145;49.902;8.680;'2023-05-09 10:26:26';99990;;;18;52
30343;BME280;17145;49.902;8.680;'2023-05-09 10:28:54';99990;;;18;52
30343;BME280;17145;49.902;8.680;'2023-05-09 10:31:21';99980;;;18;51
30343;BME280;17145;49.902;8.680;'2023-05-09 10:33:49';99980;;;18;51
30343;BME280;17145;49.902;8.680;'2023-05-09 10:36:16';99980;;;18;51
30343;BME280;17145;49.902;8.680;'2023-05-09 10:38:43';99980;;;18;52
30343;BME280;17145;49.902;8.680;'2023-05-09 10:41:11';99970;;;18;52
30343;BME280;17145;49.902;8.680;'2023-05-09 10:43:40';99970;;;18;52
30343;BME280;17145;49.902;8.680;'2023-05-09 10:46:09';99970;;;18;52
30343;BME280;17145;49.902;8.680;'2023-05-09 10:48:37';99970;;;18;50
30343;BME280;17145;49.902;8.680;'2023-05-09 10:51:05';99960;;;18;51
30343;BME280;17145;49.902;8.680;'2023-05-09 10:53:34';99960;;;18;51
30343;BME280;17145;49.902;8.680;'2023-05-09 10:56:02';99960;;;18;51
30343;BME280;17145;49.902;8.680;'2023-05-09 10:58:30';99960;;;18;51
30343;BME280;17145;49.902;8.680;'2023-05-09 11:00:59';99960;;;18;51
30343;BME280;17145;49.902;8.680;'2023-05-09 11:03:26';99960;;;18;51
30343;BME280;17145;49.902;8.680;'2023-05-09 11:05:55';99950;;;18;50
30343;BME280;17145;49.902;8.680;'2023-05-09 11:08:23';99950;;;18;50
30343;BME280;17145;49.902;8.680;'2023-05-09 11:10:50';99950;;;19;49
30343;BME280;17145;49.902;8.680;'2023-05-09 11:13:19';99950;;;18;49
30343;BME280;17145;49.902;8.680;'2023-05-09 11:15:50';99940;;;18;50
30343;BME280;17145;49.902;8.680;'2023-05-09 11:18:22';99940;;;18;49
30343;BME280;17145;49.902;8.680;'2023-05-09 11:20:55';99940;;;18;50
30343;BME280;17145;49.902;8.680;'2023-05-09 11:23:25';99930;;;18;51
30343;BME280;17145;49.902;8.680;'2023-05-09 11:25:57';99930;;;18;51
30343;BME280;17145;49.902;8.680;'2023-05-09 11:28:25';99930;;;18;50
30343;BME280;17145;49.902;8.680;'2023-05-09 11:30:52';99920;;;19;50
30343;BME280;17145;49.902;8.680;'2023-05-09 11:33:20';99920;;;19;50
30343;BME280;17145;49.902;8.680;'2023-05-09 11:35:49';99920;;;19;50
30343;BME280;17145;49.902;8.680;'2023-05-09 11:38:17';99920;;;19;49
30343;BME280;17145;49.902;8.680;'2023-05-09 11:40:51';99910;;;19;49
30343;BME280;17145;49.902;8.680;'2023-05-09 11:43:19';99910;;;19;49
30343;BME280;17145;49.902;8.680;'2023-05-09 11:45:48';99900;;;19;49
30343;BME280;17145;49.902;8.680;'2023-05-09 11:48:15';99900;;;19;49
30343;BME280;17145;49.902;8.680;'2023-05-09 11:50:45';99900;;;19;49
30343;BME280;17145;49.902;8.680;'2023-05-09 11:53:13';99890;;;19;49
30343;BME280;17145;49.902;8.680;'2023-05-09 11:55:49';99890;;;19;49
30343;BME280;17145;49.902;8.680;'2023-05-09 11:58:17';99890;;;18;50
30343;BME280;17145;49.902;8.680;'2023-05-09 12:00:45';99880;;;18;53
30343;BME280;17145;49.902;8.680;'2023-05-09 12:03:14';99880;;;18;54
30343;BME280;17145;49.902;8.680;'2023-05-09 12:05:42';99880;;;18;55
30343;BME280;17145;49.902;8.680;'2023-05-09 12:08:09';99880;;;18;56
30343;BME280;17145;49.902;8.680;'2023-05-09 12:10:37';99880;;;18;57
30343;BME280;17145;49.902;8.680;'2023-05-09 12:13:10';99880;;;18;58
30343;BME280;17145;49.902;8.680;'2023-05-09 12:15:40';99870;;;18;58
30343;BME280;17145;49.902;8.680;'2023-05-09 12:18:11';99860;;;18;57
30343;BME280;17145;49.902;8.680;'2023-05-09 12:20:39';99860;;;18;58
30343;BME280;17145;49.902;8.680;'2023-05-09 12:23:07';99860;;;18;58
30343;BME280;17145;49.902;8.680;'2023-05-09 12:25:38';99850;;;19;58
30343;BME280;17145;49.902;8.680;'2023-05-09 12:28:11';99850;;;19;56
30343;BME280;17145;49.902;8.680;'2023-05-09 12:30:49';99840;;;19;56
30343;BME280;17145;49.902;8.680;'2023-05-09 12:33:19';99830;;;19;56
30343;BME280;17145;49.902;8.680;'2023-05-09 12:35:49';99820;;;19;55
30343;BME280;17145;49.902;8.680;'2023-05-09 12:38:17';99820;;;19;54
30343;BME280;17145;49.902;8.680;'2023-05-09 12:40:46';99820;;;19;56
30343;BME280;17145;49.902;8.680;'2023-05-09 12:43:14';99810;;;19;56
30343;BME280;17145;49.902;8.680;'2023-05-09 12:45:42';99810;;;19;56
30343;BME280;17145;49.902;8.680;'2023-05-09 12:48:10';99800;;;19;56
30343;BME280;17145;49.902;8.680;'2023-05-09 12:50:38';99810;;;19;56
30343;BME280;17145;49.902;8.680;'2023-05-09 12:53:08';99800;;;19;52
30343;BME280;17145;49.902;8.680;'2023-05-09 12:58:18';99790;;;19;57
30343;BME280;17145;49.902;8.680;'2023-05-09 13:00:46';99780;;;19;57
30343;BME280;17145;49.902;8.680;'2023-05-09 13:03:14';99780;;;19;56
30343;BME280;17145;49.902;8.680;'2023-05-09 13:05:41';99780;;;19;56
30343;BME280;17145;49.902;8.680;'2023-05-09 13:08:19';99770;;;19;56
30343;BME280;17145;49.902;8.680;'2023-05-09 13:10:48';99760;;;19;56
30343;BME280;17145;49.902;8.680;'2023-05-09 13:15:55';99760;;;19;57
30343;BME280;17145;49.902;8.680;'2023-05-09 13:18:22';99750;;;20;56
30343;BME280;17145;49.902;8.680;'2023-05-09 13:20:50';99750;;;20;56
30343;BME280;17145;49.902;8.680;'2023-05-09 13:23:18';99750;;;19;56
30343;BME280;17145;49.902;8.680;'2023-05-09 13:25:46';99740;;;20;55
30343;BME280;17145;49.902;8.680;'2023-05-09 13:28:25';99740;;;20;54
30343;BME280;17145;49.902;8.680;'2023-05-09 13:30:52';99730;;;20;53
30343;BME280;17145;49.902;8.680;'2023-05-09 13:36:04';99730;;;20;52
30343;BME280;17145;49.902;8.680;'2023-05-09 13:38:40';99720;;;20;53
30343;BME280;17145;49.902;8.680;'2023-05-09 13:41:08';99720;;;20;53
30343;BME280;17145;49.902;8.680;'2023-05-09 13:43:36';99720;;;20;54
30343;BME280;17145;49.902;8.680;'2023-05-09 13:46:04';99710;;;20;53
30343;BME280;17145;49.902;8.680;'2023-05-09 13:48:36';99710;;;20;52
30343;BME280;17145;49.902;8.680;'2023-05-09 13:51:04';99710;;;20;53
30343;BME280;17145;49.902;8.680;'2023-05-09 13:53:31';99710;;;20;53
30343;BME280;17145;49.902;8.680;'2023-05-09 13:56:02';99700;;;20;53
30343;BME280;17145;49.902;8.680;'2023-05-09 13:58:30';99700;;;19;53
30343;BME280;17145;49.902;8.680;'2023-05-09 14:00:57';99700;;;20;53
30343;BME280;17145;49.902;8.680;'2023-05-09 14:03:25';99700;;;19;54
30343;BME280;17145;49.902;8.680;'2023-05-09 14:05:53';99690;;;20;55
30343;BME280;17145;49.902;8.680;'2023-05-09 14:08:21';99690;;;19;54
30343;BME280;17145;49.902;8.680;'2023-05-09 14:10:48';99680;;;19;52
30343;BME280;17145;49.902;8.680;'2023-05-09 14:13:16';99680;;;19;52
30343;BME280;17145;49.902;8.680;'2023-05-09 14:15:44';99680;;;19;51
30343;BME280;17145;49.902;8.680;'2023-05-09 14:18:11';99670;;;20;50
30343;BME280;17145;49.902;8.680;'2023-05-09 14:20:41';99660;;;20;48
30343;BME280;17145;49.902;8.680;'2023-05-09 14:23:10';99660;;;20;50
30343;BME280;17145;49.902;8.680;'2023-05-09 14:25:37';99650;;;20;52
30343;BME280;17145;49.902;8.680;'2023-05-09 14:28:05';99640;;;21;52
30343;BME280;17145;49.902;8.680;'2023-05-09 14:30:33';99640;;;20;51
30343;BME280;17145;49.902;8.680;'2023-05-09 14:33:00';99640;;;21;49
30343;BME280;17145;49.902;8.680;'2023-05-09 14:35:27';99630;;;21;46
30343;BME280;17145;49.902;8.680;'2023-05-09 14:37:55';99630;;;21;47
30343;BME280;17145;49.902;8.680;'2023-05-09 14:40:24';99620;;;22;44
30343;BME280;17145;49.902;8.680;'2023-05-09 14:42:51';99610;;;22;43
30343;BME280;17145;49.902;8.680;'2023-05-09 14:45:19';99610;;;21;43
30343;BME280;17145;49.902;8.680;'2023-05-09 14:47:51';99600;;;22;42
30343;BME280;17145;49.902;8.680;'2023-05-09 14:50:18';99600;;;22;41
30343;BME280;17145;49.902;8.680;'2023-05-09 14:52:50';99590;;;22;43
30343;BME280;17145;49.902;8.680;'2023-05-09 14:55:18';99590;;;22;44
30343;BME280;17145;49.902;8.680;'2023-05-09 14:57:57';99580;;;22;42
30343;BME280;17145;49.902;8.680;'2023-05-09 15:00:24';99580;;;22;42
30343;BME280;17145;49.902;8.680;'2023-05-09 15:02:54';99580;;;22;40
30343;BME280;17145;49.902;8.680;'2023-05-09 15:05:22';99570;;;21;42
30343;BME280;17145;49.902;8.680;'2023-05-09 15:07:51';99570;;;22;42
30343;BME280;17145;49.902;8.680;'2023-05-09 15:10:23';99570;;;22;44
30343;BME280;17145;49.902;8.680;'2023-05-09 15:12:51';99560;;;22;45
30343;BME280;17145;49.902;8.680;'2023-05-09 15:15:20';99560;;;21;45
30343;BME280;17145;49.902;8.680;'2023-05-09 15:17:49';99560;;;21;47
30343;BME280;17145;49.902;8.680;'2023-05-09 15:20:17';99560;;;21;46
30343;BME280;17145;49.902;8.680;'2023-05-09 15:22:45';99550;;;21;47
30343;BME280;17145;49.902;8.680;'2023-05-09 15:25:12';99550;;;21;46
30343;BME280;17145;49.902;8.680;'2023-05-09 15:27:39';99540;;;21;45
30343;BME280;17145;49.902;8.680;'2023-05-09 15:30:07';99540;;;21;47
30343;BME280;17145;49.902;8.680;'2023-05-09 15:32:35';99530;;;21;42
30343;BME280;17145;49.902;8.680;'2023-05-09 15:35:03';99520;;;21;42
30343;BME280;17145;49.902;8.680;'2023-05-09 15:37:30';99520;;;22;43
30343;BME280;17145;49.902;8.680;'2023-05-09 15:39:57';99520;;;22;45
30343;BME280;17145;49.902;8.680;'2023-05-09 15:42:25';99520;;;22;44
30343;BME280;17145;49.902;8.680;'2023-05-09 15:44:52';99510;;;21;45
30343;BME280;17145;49.902;8.680;'2023-05-09 15:47:19';99510;;;21;44
30343;BME280;17145;49.902;8.680;'2023-05-09 15:49:47';99510;;;21;42
30343;BME280;17145;49.902;8.680;'2023-05-09 15:52:14';99500;;;21;43
30343;BME280;17145;49.902;8.680;'2023-05-09 15:54:42';99500;;;21;45
30343;BME280;17145;49.902;8.680;'2023-05-09 15:57:10';99500;;;21;45
30343;BME280;17145;49.902;8.680;'2023-05-09 15:59:37';99500;;;21;44
30343;BME280;17145;49.902;8.680;'2023-05-09 16:02:04';99490;;;21;43
30343;BME280;17145;49.902;8.680;'2023-05-09 16:04:32';99490;;;21;43
30343;BME280;17145;49.902;8.680;'2023-05-09 16:07:00';99490;;;21;44
30343;BME280;17145;49.902;8.680;'2023-05-09 16:09:28';99480;;;22;42
30343;BME280;17145;49.902;8.680;'2023-05-09 16:11:56';99470;;;21;41
30343;BME280;17145;49.902;8.680;'2023-05-09 16:14:24';99470;;;22;42
30343;BME280;17145;49.902;8.680;'2023-05-09 16:16:51';99460;;;22;41
30343;BME280;17145;49.902;8.680;'2023-05-09 16:19:19';99460;;;22;41
30343;BME280;17145;49.902;8.680;'2023-05-09 16:21:46';99460;;;22;42
30343;BME280;17145;49.902;8.680;'2023-05-09 16:24:13';99450;;;22;42
30343;BME280;17145;49.902;8.680;'2023-05-09 16:26:41';99450;;;22;43